Time;durP1;ratioP1;P1;durP2;ratioP2;P2;SDS_P1;SDS_P2;PMS_P1;PMS_P2;Temp;Humidity;BMP_temperature;BMP_pressure;BME280_temperature;BME280_humidity;BME280_pressure;Samples;Min_cycle;Max_cycle;Signal;HPM_P1;HPM_P2
2022/06/22 00:02:17;;;;;;;12.52;4.35;;;;;;;16.66;57.17;100833.78;5110302;28;20048;-61
2022/06/22 00:04:50;;;;;;;15.48;4.60;;;;;;;16.45;57.56;100828.44;5109428;28;20501;-60
2022/06/22 00:07:24;;;;;;;13.00;3.95;;;;;;;16.33;58.10;100824.59;5110412;28;20134;-60
2022/06/22 00:09:54;;;;;;;14.48;4.28;;;;;;;16.57;57.71;100824.22;5109819;28;20048;-61
2022/06/22 00:12:26;;;;;;;16.40;4.85;;;;;;;16.50;58.79;100816.13;5110120;28;20103;-60
2022/06/22 00:14:56;;;;;;;12.38;4.57;;;;;;;16.49;59.33;100801.06;5110190;28;20047;-60
2022/06/22 00:17:32;;;;;;;11.25;4.03;;;;;;;16.40;59.57;100814.78;5109767;28;20078;-60
2022/06/22 00:20:21;;;;;;;10.10;3.85;;;;;;;16.44;60.24;100810.69;5105386;28;20051;-60
2022/06/22 00:22:53;;;;;;;14.50;3.85;;;;;;;16.44;59.96;100808.03;5096141;28;20375;-60
2022/06/22 00:25:38;;;;;;;16.33;4.05;;;;;;;16.47;59.56;100804.97;5096501;28;20047;-60
2022/06/22 00:31:34;;;;;;;15.13;3.88;;;;;;;16.45;60.36;100807.00;5128471;27;20382;-60
2022/06/22 00:34:05;;;;;;;12.13;4.07;;;;;;;16.30;61.20;100804.41;5130765;28;20043;-60
2022/06/22 00:36:39;;;;;;;12.70;4.03;;;;;;;16.38;61.21;100806.13;5131234;27;20047;-60
2022/06/22 00:39:14;;;;;;;11.35;3.75;;;;;;;16.36;61.00;100800.94;5131410;28;20101;-60
2022/06/22 00:41:47;;;;;;;13.88;3.95;;;;;;;16.34;61.12;100803.00;5130417;28;20051;-60
2022/06/22 00:44:16;;;;;;;11.90;3.80;;;;;;;16.26;61.38;100814.66;5131684;28;20087;-60
2022/06/22 00:46:53;;;;;;;15.30;3.42;;;;;;;16.28;60.99;100812.63;5131400;27;20044;-59
2022/06/22 00:49:22;;;;;;;14.15;3.90;;;;;;;16.32;60.49;100821.09;5131184;27;20070;-60
2022/06/22 00:51:49;;;;;;;13.30;4.15;;;;;;;16.37;60.57;100815.16;5131476;27;20100;-59
2022/06/22 00:54:23;;;;;;;11.10;4.25;;;;;;;16.33;61.42;100805.84;5131562;27;20051;-59
2022/06/22 00:57:14;;;;;;;12.27;3.65;;;;;;;16.33;61.02;100800.50;5119671;27;20421;-61
2022/06/22 00:59:51;;;;;;;11.60;3.47;;;;;;;16.30;61.16;100799.88;5110612;28;20085;-61
2022/06/22 01:02:57;;;;;;;14.85;3.65;;;;;;;16.23;60.99;100803.50;5110270;28;20089;-61
2022/06/22 01:05:37;;;;;;;12.35;3.72;;;;;;;16.21;60.60;100797.47;5109209;28;20126;-61
2022/06/22 01:08:15;;;;;;;15.63;3.92;;;;;;;15.90;61.77;100794.06;5110698;28;20052;-61
2022/06/22 01:10:52;;;;;;;18.95;3.90;;;;;;;15.87;62.06;100786.41;5109618;28;20097;-60
2022/06/22 01:13:36;;;;;;;20.08;4.43;;;;;;;15.93;61.94;100774.13;5110636;28;20083;-60
2022/06/22 01:16:09;;;;;;;11.82;3.90;;;;;;;15.87;62.56;100775.72;5110642;28;20117;-61
2022/06/22 01:18:45;;;;;;;9.15;3.28;;;;;;;15.87;63.02;100774.91;5110243;28;20066;-60
2022/06/22 01:21:51;;;;;;;14.82;3.42;;;;;;;15.78;63.30;100779.53;5110456;28;20046;-61
2022/06/22 01:24:49;;;;;;;13.02;3.90;;;;;;;15.70;64.00;100783.09;5109445;28;20048;-60
2022/06/22 01:27:23;;;;;;;11.98;3.67;;;;;;;15.70;63.53;100772.41;5109834;28;20109;-60
2022/06/22 01:29:53;;;;;;;16.42;4.50;;;;;;;15.70;62.92;100774.25;5109985;28;20040;-60
2022/06/22 01:32:27;;;;;;;13.00;4.28;;;;;;;15.67;62.80;100774.63;5110342;28;20113;-60
2022/06/22 01:34:57;;;;;;;13.60;4.00;;;;;;;15.72;63.87;100773.03;5109609;28;20044;-60
2022/06/22 01:37:28;;;;;;;14.15;3.72;;;;;;;15.77;63.14;100771.69;5109942;28;20064;-60
2022/06/22 01:40:14;;;;;;;14.90;4.00;;;;;;;15.76;62.99;100760.16;5110043;28;20052;-61
2022/06/22 01:43:03;;;;;;;10.82;3.55;;;;;;;15.75;63.57;100763.84;5094857;28;20497;-61
2022/06/22 01:45:41;;;;;;;16.77;3.75;;;;;;;15.53;62.57;100746.88;5096469;28;20044;-60
2022/06/22 01:48:16;;;;;;;15.02;3.97;;;;;;;15.35;63.73;100756.13;5096100;28;20086;-61
2022/06/22 01:51:09;;;;;;;13.68;3.70;;;;;;;15.51;64.01;100760.44;5096257;28;20044;-60
2022/06/22 01:53:46;;;;;;;13.35;3.67;;;;;;;15.50;64.31;100756.13;5096371;28;20520;-61
2022/06/22 01:56:21;;;;;;;13.75;4.20;;;;;;;15.51;64.50;100755.06;5095974;28;20040;-60
2022/06/22 01:59:16;;;;;;;16.90;4.43;;;;;;;15.50;63.56;100761.47;5094861;28;20052;-60
2022/06/22 02:01:57;;;;;;;10.32;3.83;;;;;;;15.56;64.20;100757.22;5095651;28;20097;-59
2022/06/22 02:04:33;;;;;;;10.75;4.13;;;;;;;15.55;64.06;100752.88;5095520;28;20044;-60
2022/06/22 02:10:24;;;;;;;15.27;4.22;;;;;;;15.46;62.27;100754.84;5095549;28;20497;-60
2022/06/22 02:13:31;;;;;;;12.45;3.42;;;;;;;15.50;61.81;100760.63;5095698;28;20052;-60
2022/06/22 02:16:24;;;;;;;18.95;4.05;;;;;;;15.52;61.51;100764.78;5095375;28;20070;-61
2022/06/22 02:21:53;;;;;;;16.55;3.72;;;;;;;15.51;61.93;100773.78;5111157;27;20372;-62
2022/06/22 02:24:32;;;;;;;23.08;4.15;;;;;;;15.52;62.08;100769.28;5093672;28;20044;-60
2022/06/22 02:29:43;;;;;;;13.43;3.63;;;;;;;15.64;62.34;100772.31;5109412;27;20375;-60
2022/06/22 02:32:15;;;;;;;11.48;4.10;;;;;;;15.70;62.92;100777.75;5086214;28;20028;-60
2022/06/22 02:34:46;;;;;;;13.00;4.07;;;;;;;15.67;62.92;100777.28;5086602;28;20048;-59
2022/06/22 02:37:18;;;;;;;15.07;4.13;;;;;;;15.55;63.40;100767.09;5070581;28;20118;-60
2022/06/22 02:39:52;;;;;;;13.55;3.92;;;;;;;15.48;63.70;100759.97;5070505;28;20040;-60
2022/06/22 02:45:07;;;;;;;14.50;4.22;;;;;;;15.44;63.71;100759.50;5070329;28;20106;-61
2022/06/22 02:48:14;;;;;;;11.13;3.88;;;;;;;15.49;63.66;100758.97;5070043;28;20398;-60
2022/06/22 02:51:06;;;;;;;13.27;3.95;;;;;;;15.41;63.72;100751.03;5070176;28;20040;-61
2022/06/22 02:53:37;;;;;;;21.27;4.43;;;;;;;15.39;64.12;100763.75;5070040;28;20414;-61
2022/06/22 02:56:09;;;;;;;14.38;4.30;;;;;;;15.40;64.56;100773.44;5075548;28;20048;-60
2022/06/22 02:58:37;;;;;;;13.95;4.03;;;;;;;15.38;64.62;100776.31;5090493;28;20052;-60
2022/06/22 03:01:12;;;;;;;18.13;4.45;;;;;;;15.32;63.94;100785.88;5090134;28;20070;-60
2022/06/22 03:03:42;;;;;;;14.82;3.95;;;;;;;15.12;64.91;100777.59;5089995;28;20398;-60
2022/06/22 03:06:13;;;;;;;12.65;4.10;;;;;;;15.01;65.48;100755.81;5090383;28;20048;-59
2022/06/22 03:08:40;;;;;;;16.57;4.00;;;;;;;14.94;65.80;100747.72;5090248;28;20044;-60
2022/06/22 03:11:09;;;;;;;19.10;4.30;;;;;;;15.17;65.89;100739.59;5090306;28;20791;-60
2022/06/22 03:13:43;;;;;;;13.07;4.13;;;;;;;15.10;65.89;100738.72;5080458;28;20052;-60
2022/06/22 03:16:31;;;;;;;12.73;4.68;;;;;;;15.07;65.71;100745.25;5090283;28;20044;-60
2022/06/22 03:19:02;;;;;;;15.05;4.60;;;;;;;15.07;66.14;100733.72;5090065;28;20072;-60
2022/06/22 03:21:29;;;;;;;13.82;4.72;;;;;;;15.05;65.37;100739.25;5090038;28;20055;-60
2022/06/22 03:24:24;;;;;;;13.50;4.20;;;;;;;15.21;65.95;100740.06;5090072;28;20102;-59
2022/06/22 03:27:00;;;;;;;15.57;4.60;;;;;;;15.13;65.66;100733.84;5105286;28;20083;-59
2022/06/22 03:29:38;;;;;;;14.57;4.25;;;;;;;15.01;65.90;100737.97;5089370;28;20048;-60
2022/06/22 03:32:13;;;;;;;15.93;4.50;;;;;;;15.01;65.86;100735.31;5088955;28;20369;-59
2022/06/22 03:34:47;;;;;;;16.48;4.70;;;;;;;15.01;65.92;100737.13;5089885;28;20486;-61
2022/06/22 03:37:21;;;;;;;16.52;4.95;;;;;;;15.13;66.20;100730.31;5089672;28;20044;-60
2022/06/22 03:39:54;;;;;;;17.40;4.80;;;;;;;15.10;65.77;100720.00;5083142;28;20090;-60
2022/06/22 03:42:28;;;;;;;18.08;5.07;;;;;;;15.22;65.69;100717.69;5075774;28;20072;-60
2022/06/22 03:45:02;;;;;;;17.83;4.68;;;;;;;15.13;65.63;100717.81;5075940;28;20048;-61
2022/06/22 03:47:34;;;;;;;13.27;4.78;;;;;;;15.18;65.57;100713.75;5076328;28;20111;-60
2022/06/22 03:50:22;;;;;;;11.20;4.30;;;;;;;15.22;65.26;100723.84;5076072;28;20048;-60
2022/06/22 03:52:59;;;;;;;13.98;4.70;;;;;;;15.33;64.74;100726.09;5076016;28;20072;-60
2022/06/22 03:55:32;;;;;;;16.45;4.95;;;;;;;15.35;65.39;100733.91;5076088;28;20054;-59
2022/06/22 03:58:01;;;;;;;13.45;4.93;;;;;;;15.36;65.66;100732.91;5075711;28;20037;-59
2022/06/22 04:00:28;;;;;;;11.77;4.60;;;;;;;15.33;66.15;100731.44;5075611;28;20052;-59
2022/06/22 04:02:55;;;;;;;12.55;4.55;;;;;;;15.38;66.13;100733.53;5075548;28;20041;-60
2022/06/22 04:05:28;;;;;;;16.00;4.70;;;;;;;15.35;66.58;100733.91;5074950;28;20082;-60
2022/06/22 04:07:55;;;;;;;16.98;4.90;;;;;;;15.32;65.46;100750.31;5075681;28;20083;-59
2022/06/22 04:10:44;;;;;;;13.00;5.25;;;;;;;15.39;65.29;100745.03;5074547;28;20044;-59
2022/06/22 04:13:19;;;;;;;12.25;5.05;;;;;;;15.40;64.90;100754.72;5075550;28;20041;-59
2022/06/22 04:15:54;;;;;;;19.95;4.82;;;;;;;15.46;65.25;100756.66;5075292;28;20094;-61
2022/06/22 04:18:28;;;;;;;20.77;4.85;;;;;;;15.30;66.94;100753.19;5075138;28;20033;-61
2022/06/22 04:21:02;;;;;;;15.68;4.95;;;;;;;15.45;66.45;100753.16;5075507;28;20494;-60
2022/06/22 04:23:36;;;;;;;16.73;4.80;;;;;;;15.40;66.45;100760.09;5075303;28;20048;-61
2022/06/22 04:26:25;;;;;;;18.85;4.85;;;;;;;15.41;66.08;100753.69;5075079;28;20044;-60
2022/06/22 04:28:58;;;;;;;14.40;4.70;;;;;;;15.41;66.98;100745.69;5075036;28;20060;-60
2022/06/22 04:31:34;;;;;;;21.95;5.32;;;;;;;15.38;66.48;100757.59;5077262;28;20043;-60
2022/06/22 04:34:07;;;;;;;12.23;4.53;;;;;;;15.38;66.28;100770.94;5074471;28;20127;-61
2022/06/22 04:36:43;;;;;;;13.52;5.05;;;;;;;15.44;65.21;100770.19;5074281;28;20053;-61
2022/06/22 04:39:19;;;;;;;16.95;4.90;;;;;;;15.48;65.52;100766.16;5074467;28;20459;-60
2022/06/22 04:41:47;;;;;;;13.88;5.22;;;;;;;15.52;66.49;100762.09;5074639;28;20055;-60
2022/06/22 04:44:20;;;;;;;15.10;5.10;;;;;;;15.57;66.67;100766.06;5074781;28;20079;-60
2022/06/22 04:46:50;;;;;;;12.15;4.88;;;;;;;15.59;66.70;100772.88;5074731;28;20041;-60
2022/06/22 04:49:24;;;;;;;13.68;5.18;;;;;;;15.66;66.11;100772.94;5074891;28;20040;-60
2022/06/22 04:51:57;;;;;;;18.13;5.22;;;;;;;15.72;65.28;100780.25;5073600;28;20074;-60
2022/06/22 04:54:30;;;;;;;15.82;5.13;;;;;;;15.70;65.15;100771.59;5074733;28;20060;-61
2022/06/22 04:57:01;;;;;;;16.20;5.10;;;;;;;15.55;66.70;100775.09;5074693;28;20052;-60
2022/06/22 04:59:29;;;;;;;16.33;4.85;;;;;;;15.69;67.18;100773.41;5074701;28;20036;-60
2022/06/22 05:02:01;;;;;;;16.38;5.30;;;;;;;15.63;66.99;100770.66;5074391;28;20098;-60
2022/06/22 05:04:35;;;;;;;13.65;5.32;;;;;;;15.71;66.75;100773.22;5072632;28;20042;-60
2022/06/22 05:10:17;;;;;;;17.02;5.35;;;;;;;15.77;65.53;100779.69;5111079;27;20392;-59
2022/06/22 05:12:48;;;;;;;16.63;4.93;;;;;;;15.81;64.57;100787.19;5111084;28;20047;-60
2022/06/22 05:15:27;;;;;;;20.58;5.35;;;;;;;15.88;64.14;100784.56;5110798;28;20047;-59
2022/06/22 05:17:54;;;;;;;16.45;5.70;;;;;;;15.92;63.33;100794.72;5110791;28;20405;-60
2022/06/22 05:20:36;;;;;;;13.90;5.15;;;;;;;15.92;62.57;100802.72;5111199;28;20101;-60
2022/06/22 05:23:06;;;;;;;19.05;5.32;;;;;;;16.03;62.96;100796.06;5111039;28;20221;-60
2022/06/22 05:25:34;;;;;;;15.20;5.20;;;;;;;16.10;62.92;100782.78;5111017;28;20039;-60
2022/06/22 05:28:06;;;;;;;18.67;6.18;;;;;;;16.07;62.78;100778.63;5110618;28;20054;-60
2022/06/22 05:30:39;;;;;;;22.77;6.78;;;;;;;15.98;61.58;100776.25;5109753;28;20433;-60
2022/06/22 05:33:15;;;;;;;17.38;7.03;;;;;;;16.09;61.50;100784.59;5093102;28;20544;-60
2022/06/22 05:35:47;;;;;;;19.70;6.50;;;;;;;16.21;62.66;100789.44;5110908;28;20047;-60
2022/06/22 05:38:18;;;;;;;21.13;6.70;;;;;;;16.17;61.36;100788.19;5110484;28;20040;-61
2022/06/22 05:40:46;;;;;;;24.67;6.85;;;;;;;16.17;60.98;100786.34;5110319;28;20588;-60
2022/06/22 05:43:14;;;;;;;26.05;7.78;;;;;;;16.23;60.41;100784.75;5110231;28;20445;-59
2022/06/22 05:45:47;;;;;;;30.00;7.88;;;;;;;16.27;60.54;100786.84;5110472;28;20052;-60
2022/06/22 05:48:21;;;;;;;25.73;7.47;;;;;;;16.33;60.44;100787.94;5092185;28;20068;-59
2022/06/22 05:53:52;;;;;;;23.45;7.20;;;;;;;16.53;59.80;100790.81;5110772;27;20888;-60
2022/06/22 05:56:28;;;;;;;21.52;7.00;;;;;;;16.58;59.45;100795.59;5093097;28;20152;-60
2022/06/22 05:59:09;;;;;;;24.55;7.03;;;;;;;16.68;59.02;100796.94;5090499;28;20063;-60
2022/06/22 06:02:01;;;;;;;25.55;8.07;;;;;;;16.74;58.78;100806.03;5089041;28;20490;-60
2022/06/22 06:04:38;;;;;;;;;;;;;;;16.91;60.26;100811.97;5090198;28;20048;-59
2022/06/22 06:07:30;;;;;;;25.08;8.02;;;;;;;16.99;59.29;100813.66;5091007;28;20347;-60
2022/06/22 06:09:57;;;;;;;26.73;8.38;;;;;;;17.01;59.88;100809.78;5090482;28;20048;-60
2022/06/22 06:12:32;;;;;;;19.83;7.90;;;;;;;17.07;60.42;100809.00;5090174;28;20036;-60
2022/06/22 06:15:02;;;;;;;23.02;7.72;;;;;;;17.15;61.20;100816.06;5090572;28;20076;-60
2022/06/22 06:20:19;;;;;;;22.35;7.22;;;;;;;17.10;60.25;100810.47;5090558;28;20180;-60
2022/06/22 06:22:48;;;;;;;26.08;6.82;;;;;;;17.09;59.88;100808.81;5090974;28;20075;-60
2022/06/22 06:28:26;;;;;;;20.48;5.78;;;;;;;17.17;59.38;100808.69;5090360;28;20485;-60
2022/06/22 06:31:02;;;;;;;14.73;5.18;;;;;;;17.16;57.56;100801.66;5088779;28;20595;-60
2022/06/22 06:33:34;;;;;;;17.00;5.40;;;;;;;17.35;58.55;100801.97;5084713;28;20444;-60
2022/06/22 06:36:17;;;;;;;19.92;5.82;;;;;;;17.40;59.09;100797.66;5090706;28;20044;-60
2022/06/22 06:38:52;;;;;;;18.92;5.45;;;;;;;17.42;57.59;100792.09;5090339;28;20098;-60
2022/06/22 06:41:24;;;;;;;20.85;6.35;;;;;;;17.47;57.33;100789.66;5090525;28;20447;-61
2022/06/22 06:44:00;;;;;;;17.10;5.07;;;;;;;17.60;58.38;100789.72;5090623;28;20051;-60
2022/06/22 06:46:38;;;;;;;16.02;5.53;;;;;;;17.73;59.01;100793.50;5090490;28;20059;-60
2022/06/22 06:49:14;;;;;;;17.88;6.00;;;;;;;17.72;57.67;100790.00;5089179;28;20041;-60
2022/06/22 06:51:47;;;;;;;21.40;5.00;;;;;;;17.78;57.53;100783.00;5090251;28;20505;-60
2022/06/22 06:54:25;;;;;;;21.38;5.40;;;;;;;17.83;56.98;100783.22;5090405;28;20068;-60
2022/06/22 06:56:59;;;;;;;16.73;5.28;;;;;;;17.94;57.91;100787.22;5090388;28;20048;-60
2022/06/22 06:59:29;;;;;;;23.23;5.07;;;;;;;17.97;56.52;100782.28;5030883;28;20097;-53
2022/06/22 07:02:04;;;;;;;17.33;5.47;;;;;;;18.16;56.29;100793.28;5072041;28;20506;-57
2022/06/22 07:04:34;;;;;;;18.27;5.38;;;;;;;18.12;55.60;100778.56;5087309;28;20090;-57
2022/06/22 07:07:19;;;;;;;26.48;4.95;;;;;;;18.12;56.31;100782.09;5088290;28;20048;-57
2022/06/22 07:09:49;;;;;;;23.63;5.22;;;;;;;18.16;56.04;100774.47;5082380;28;20036;-57
2022/06/22 07:12:35;;;;;;;20.27;5.32;;;;;;;18.28;56.76;100772.84;5081676;28;20040;-57
2022/06/22 07:15:05;;;;;;;16.33;6.10;;;;;;;18.36;56.63;100767.28;5086975;28;20044;-57
2022/06/22 07:17:32;;;;;;;22.00;5.85;;;;;;;18.33;55.38;100767.69;5085221;28;20041;-57
2022/06/22 07:20:15;;;;;;;20.77;5.90;;;;;;;18.40;56.90;100763.13;5088861;28;20056;-57
2022/06/22 07:22:50;;;;;;;19.23;5.15;;;;;;;18.52;55.88;100779.50;5086847;28;20052;-57
2022/06/22 07:25:25;;;;;;;14.55;5.80;;;;;;;18.66;55.85;100776.81;5072244;28;20059;-57
2022/06/22 07:27:59;;;;;;;14.38;5.50;;;;;;;18.70;55.06;100769.97;5073308;28;20490;-57
2022/06/22 07:30:39;;;;;;;20.05;5.25;;;;;;;18.73;56.67;100764.19;5065709;28;20085;-57
2022/06/22 07:33:35;;;;;;;15.30;4.60;;;;;;;18.83;55.79;100759.28;5063463;28;20462;-57
2022/06/22 07:36:13;;;;;;;15.25;4.60;;;;;;;18.92;56.00;100757.19;5077490;28;20090;-57
2022/06/22 07:39:01;;;;;;;14.93;4.25;;;;;;;18.93;56.28;100756.16;5072004;28;20063;-56
2022/06/22 07:41:29;;;;;;;23.42;4.47;;;;;;;19.16;53.93;100766.47;5075267;28;20067;-57
2022/06/22 07:44:07;;;;;;;14.30;4.55;;;;;;;19.22;53.29;100770.97;5064063;28;20091;-58
2022/06/22 07:47:00;;;;;;;12.20;4.45;;;;;;;19.29;54.06;100770.97;5063005;28;20036;-57
2022/06/22 07:52:21;;;;;;;12.02;3.78;;;;;;;19.47;52.98;100771.13;5130341;27;20354;-56
2022/06/22 07:55:16;;;;;;;19.98;5.43;;;;;;;19.55;52.90;100778.13;5099370;28;20554;-56
2022/06/22 07:57:49;;;;;;;13.70;4.88;;;;;;;19.61;52.59;100787.22;5090657;28;20035;-56
2022/06/22 08:00:19;;;;;;;18.95;3.97;;;;;;;19.68;52.58;100785.31;5112355;27;20043;-56
2022/06/22 08:03:18;;;;;;;13.43;4.45;;;;;;;19.77;52.53;100784.06;5114947;28;20039;-57
2022/06/22 08:05:49;;;;;;;15.63;4.63;;;;;;;19.86;51.26;100788.16;5113131;28;20536;-56
2022/06/22 08:11:02;;;;;;;10.88;3.65;;;;;;;19.91;52.27;100777.59;5097245;27;20372;-57
2022/06/22 08:13:37;;;;;;;13.52;3.45;;;;;;;20.00;51.73;100783.56;5090222;28;20140;-56
2022/06/22 08:16:14;;;;;;;23.85;3.85;;;;;;;20.06;50.12;100779.16;5089911;28;20064;-57
2022/06/22 08:18:42;;;;;;;12.23;3.28;;;;;;;20.16;50.81;100776.84;5087093;28;20048;-56
2022/06/22 08:21:15;;;;;;;13.52;4.20;;;;;;;20.23;50.09;100774.94;5094940;28;20457;-57
2022/06/22 08:23:42;;;;;;;13.43;4.15;;;;;;;20.37;50.70;100774.84;5095410;28;20076;-56
2022/06/22 08:26:18;;;;;;;16.70;3.80;;;;;;;20.41;50.48;100763.41;5090692;28;20040;-58
2022/06/22 08:28:46;;;;;;;12.82;3.55;;;;;;;20.59;50.46;100770.75;5088555;28;20051;-57
2022/06/22 08:31:13;;;;;;;11.85;3.45;;;;;;;20.64;50.39;100770.91;5089055;28;20051;-56
2022/06/22 08:33:45;;;;;;;14.93;3.63;;;;;;;20.77;49.39;100769.97;5097658;28;20032;-56
2022/06/22 08:36:26;;;;;;;15.13;3.95;;;;;;;20.95;50.52;100766.50;5089164;28;20052;-57
2022/06/22 08:39:06;;;;;;;10.63;3.55;;;;;;;21.18;49.02;100770.44;5088809;28;20044;-56
2022/06/22 08:41:51;;;;;;;16.27;4.05;;;;;;;21.16;48.07;100770.66;5089682;28;20124;-56
2022/06/22 08:44:41;;;;;;;10.68;3.70;;;;;;;21.28;48.49;100770.72;5089468;28;20048;-56
2022/06/22 08:50:26;;;;;;;10.38;3.80;;;;;;;21.44;47.94;100780.91;5109641;27;20424;-57
2022/06/22 08:53:26;;;;;;;14.63;3.58;;;;;;;21.59;47.50;100772.50;5110608;28;20123;-58
2022/06/22 08:56:28;;;;;;;18.70;4.03;;;;;;;21.74;47.76;100769.41;5108358;28;20039;-58
2022/06/22 08:59:15;;;;;;;15.73;3.90;;;;;;;21.80;48.64;100771.19;5091707;28;20071;-58
2022/06/22 09:05:00;;;;;;;15.02;3.78;;;;;;;21.95;46.68;100767.25;5074114;28;20579;-57
2022/06/22 09:11:04;;;;;;;14.05;3.30;;;;;;;22.17;45.48;100779.19;5085198;27;20418;-57
2022/06/22 09:17:04;;;;;;;10.77;3.47;;;;;;;22.25;45.95;100786.16;5110217;27;20351;-57
2022/06/22 09:19:48;;;;;;;;;;;;;;;22.25;46.16;100783.47;5080124;28;20032;-57
2022/06/22 09:22:22;;;;;;;18.70;5.88;;;;;;;22.48;45.83;100777.28;5092418;28;20426;-59
2022/06/22 09:25:02;;;;;;;21.77;8.80;;;;;;;22.45;43.89;100785.03;5093038;28;20050;-57
2022/06/22 09:30:34;;;;;;;20.15;4.15;;;;;;;22.56;42.71;100774.28;5069124;28;20141;-57
2022/06/22 09:33:41;;;;;;;30.92;15.63;;;;;;;22.70;43.64;100780.28;5038443;28;20118;-57
2022/06/22 09:36:48;;;;;;;26.60;13.02;;;;;;;23.08;43.46;100775.50;5042403;28;20044;-58
2022/06/22 09:39:44;;;;;;;16.55;4.20;;;;;;;23.24;43.62;100766.66;5034640;28;20033;-58
2022/06/22 09:42:33;;;;;;;11.05;3.40;;;;;;;23.40;42.12;100770.50;5030659;28;20061;-57
2022/06/22 09:45:28;;;;;;;13.30;5.18;;;;;;;23.24;42.22;100771.25;5044503;28;20089;-58
2022/06/22 09:48:22;;;;;;;14.48;4.32;;;;;;;23.24;41.87;100772.06;5030426;28;20514;-58
2022/06/22 09:54:00;;;;;;;11.50;3.38;;;;;;;23.76;40.20;100761.22;5047732;28;20416;-57
2022/06/22 09:56:59;;;;;;;12.15;3.75;;;;;;;23.67;41.25;100764.56;5063028;28;20490;-57
2022/06/22 10:00:05;;;;;;;13.60;3.72;;;;;;;23.80;41.14;100753.47;5048173;28;20045;-57
2022/06/22 10:03:24;;;;;;;14.05;3.40;;;;;;;24.10;42.11;100755.09;5104062;27;20363;-58
2022/06/22 10:08:43;;;;;;;11.95;4.00;;;;;;;23.80;40.74;100764.31;5107630;27;20396;-57
2022/06/22 10:11:23;;;;;;;12.68;4.07;;;;;;;23.97;40.72;100760.81;5085469;28;20048;-57
2022/06/22 10:14:25;;;;;;;11.75;3.72;;;;;;;23.80;39.46;100752.66;5089780;28;20040;-57
2022/06/22 10:17:06;;;;;;;13.30;3.25;;;;;;;23.60;39.85;100748.44;5086567;28;20049;-57
2022/06/22 10:20:14;;;;;;;12.75;3.90;;;;;;;23.76;40.40;100746.88;5086348;28;20098;-57
2022/06/22 10:23:09;;;;;;;14.65;3.97;;;;;;;23.80;39.73;100744.53;5077744;28;20410;-59
2022/06/22 10:26:16;;;;;;;18.60;3.70;;;;;;;24.09;39.70;100740.72;5086289;28;20049;-59
2022/06/22 10:29:03;;;;;;;9.98;3.30;;;;;;;24.29;39.62;100725.91;5088064;28;20055;-60
2022/06/22 10:34:52;;;;;;;15.52;3.45;;;;;;;24.73;39.44;100714.41;5094871;27;20404;-59
2022/06/22 10:37:35;;;;;;;10.63;3.33;;;;;;;24.77;36.57;100716.34;5095171;28;20055;-59
2022/06/22 10:46:22;;;;;;;15.43;5.63;;;;;;;24.90;37.63;100718.72;5059592;28;20049;-60
2022/06/22 10:49:04;;;;;;;36.00;13.00;;;;;;;25.10;37.79;100718.19;5069541;28;20043;-61
2022/06/22 10:51:56;;;;;;;50.65;20.83;;;;;;;25.06;36.87;100717.03;5062516;28;20049;-59
2022/06/22 10:54:34;;;;;;;16.65;4.47;;;;;;;25.27;36.33;100728.19;5067477;28;20390;-58
2022/06/22 10:57:41;;;;;;;23.88;6.88;;;;;;;25.38;35.59;100727.25;5061861;28;20056;-60
2022/06/22 11:03:24;;;;;;;20.15;7.18;;;;;;;25.51;36.69;100726.03;5130222;27;20402;-58
2022/06/22 11:06:23;;;;;;;14.77;3.30;;;;;;;25.94;34.89;100732.50;5109793;28;20122;-58
2022/06/22 11:09:17;;;;;;;26.02;7.55;;;;;;;25.70;34.24;100728.41;5109757;28;20641;-59
2022/06/22 11:15:10;;;;;;;12.80;3.10;;;;;;;25.65;34.88;100735.44;5110071;27;20832;-59
2022/06/22 11:17:54;;;;;;;20.20;6.85;;;;;;;25.62;36.23;100735.13;5091867;28;20135;-59
2022/06/22 11:23:11;;;;;;;15.13;4.05;;;;;;;25.75;34.09;100740.13;5110252;27;20347;-63
2022/06/22 11:31:48;;;;;;;17.33;7.75;;;;;;;26.37;33.90;100727.97;5121536;27;20432;-60
2022/06/22 11:34:45;;;;;;;17.17;7.13;;;;;;;26.61;32.04;100733.91;5085244;28;20079;-60
2022/06/22 11:37:51;;;;;;;11.60;3.72;;;;;;;26.35;32.75;100732.03;5115221;28;20051;-62
2022/06/22 11:40:58;;;;;;;17.45;6.30;;;;;;;26.36;33.92;100737.22;5122533;28;20053;-60
2022/06/22 11:46:40;;;;;;;17.08;5.50;;;;;;;25.92;33.94;100741.94;5119583;27;20717;-60
2022/06/22 11:49:46;;;;;;;16.67;5.47;;;;;;;25.89;33.03;100758.75;5126046;27;20126;-61
2022/06/22 11:58:25;;;;;;;31.58;13.82;;;;;;;25.85;31.26;100742.16;5127085;27;20386;-60
2022/06/22 12:09:32;;;;;;;23.58;12.95;;;;;;;26.94;31.69;100740.09;5060118;27;20440;-60
2022/06/22 12:12:29;;;;;;;26.45;12.98;;;;;;;27.10;31.23;100740.19;5052874;28;20459;-60
2022/06/22 12:15:16;;;;;;;14.10;3.83;;;;;;;26.86;30.89;100734.34;5049535;28;20049;-60
2022/06/22 12:20:52;;;;;;;18.63;9.32;;;;;;;27.24;32.03;100727.72;5061764;28;20461;-61
2022/06/22 12:23:47;;;;;;;7.88;3.00;;;;;;;27.63;28.54;100726.50;5059101;28;20499;-61
2022/06/22 12:26:54;;;;;;;18.00;6.15;;;;;;;27.26;29.70;100724.75;5030414;28;20052;-61
2022/06/22 12:29:48;;;;;;;12.18;4.28;;;;;;;27.07;28.93;100727.09;5044255;28;20033;-60
2022/06/22 12:32:25;;;;;;;9.88;3.20;;;;;;;27.13;29.00;100723.31;5046030;28;20056;-61
2022/06/22 12:35:04;;;;;;;16.40;5.18;;;;;;;27.09;28.74;100720.31;5046335;28;20124;-61
2022/06/22 12:37:39;;;;;;;12.68;4.15;;;;;;;26.80;29.15;100714.44;5045492;28;20774;-61
2022/06/22 12:40:28;;;;;;;11.02;3.17;;;;;;;26.93;27.56;100711.25;5047325;28;20487;-61
2022/06/22 12:43:15;;;;;;;13.65;3.58;;;;;;;27.25;28.73;100704.03;5038840;28;20135;-61
2022/06/22 12:46:17;;;;;;;13.52;4.22;;;;;;;27.51;29.45;100697.63;5045360;28;20133;-61
2022/06/22 12:51:56;;;;;;;9.55;3.03;;;;;;;27.38;26.76;100695.41;5110715;27;20909;-61
2022/06/22 12:54:32;;;;;;;12.00;2.97;;;;;;;27.48;27.14;100697.34;5057873;28;20044;-62
2022/06/22 12:57:09;;;;;;;11.57;3.00;;;;;;;27.48;27.42;100689.97;5084740;28;20054;-63
2022/06/22 12:59:43;;;;;;;10.20;3.10;;;;;;;27.39;27.45;100686.94;5089019;28;20051;-61
2022/06/22 13:02:15;;;;;;;8.48;2.50;;;;;;;27.58;27.67;100692.72;5085640;28;20046;-61
2022/06/22 13:04:46;;;;;;;15.75;3.58;;;;;;;27.65;27.65;100689.75;5067829;28;20406;-61
2022/06/22 13:07:18;;;;;;;10.82;3.28;;;;;;;27.66;28.15;100687.84;5070317;28;20074;-61
2022/06/22 13:09:47;;;;;;;12.65;5.35;;;;;;;27.75;27.13;100678.03;5053316;28;20047;-61
2022/06/22 13:12:25;;;;;;;9.68;2.75;;;;;;;27.70;27.26;100678.03;5031673;28;20051;-61
2022/06/22 13:15:02;;;;;;;10.90;2.88;;;;;;;27.98;27.84;100668.56;5069095;28;20028;-61
2022/06/22 13:17:45;;;;;;;10.88;2.92;;;;;;;27.74;27.29;100671.78;5056704;28;20102;-61
2022/06/22 13:20:40;;;;;;;11.25;3.92;;;;;;;28.15;27.54;100676.47;5054687;28;20040;-61
2022/06/22 13:23:25;;;;;;;10.40;4.15;;;;;;;28.26;27.34;100667.19;5080049;28;20037;-62
2022/06/22 13:26:18;;;;;;;16.98;5.07;;;;;;;28.61;27.57;100660.03;5080018;28;20051;-60
2022/06/22 13:28:57;;;;;;;32.88;16.02;;;;;;;28.62;27.07;100655.44;5082992;28;20048;-63
2022/06/22 13:31:33;;;;;;;27.70;13.68;;;;;;;28.28;27.13;100656.81;5087164;28;20032;-61
2022/06/22 13:34:07;;;;;;;30.65;11.50;;;;;;;28.11;27.00;100648.13;5086589;28;20089;-61
2022/06/22 13:36:43;;;;;;;64.75;38.30;;;;;;;28.20;27.26;100642.91;5086881;28;20040;-61
2022/06/22 13:39:38;;;;;;;20.40;10.82;;;;;;;28.29;26.87;100642.09;5088534;28;20051;-61
2022/06/22 13:42:30;;;;;;;12.90;4.00;;;;;;;28.46;27.22;100635.50;5083719;28;20048;-61
2022/06/22 13:45:15;;;;;;;14.88;5.75;;;;;;;28.43;27.95;100647.78;5087680;28;20425;-61
2022/06/22 13:48:21;;;;;;;18.25;7.75;;;;;;;28.40;27.85;100642.06;5088118;28;20032;-61
2022/06/22 13:51:29;;;;;;;12.68;4.88;;;;;;;28.74;27.71;100657.84;5085168;28;20139;-61
2022/06/22 13:54:27;;;;;;;15.13;6.47;;;;;;;28.50;26.65;100648.31;5080298;28;20052;-61
2022/06/22 13:57:14;;;;;;;18.05;6.63;;;;;;;28.30;27.44;100635.53;5086502;28;20480;-59